createdAt,value
2018-11-13T00:00:14.333Z,11.37
2018-11-13T00:02:43.119Z,10.57
2018-11-13T00:05:12.041Z,10.67
2018-11-13T00:07:40.895Z,9.77
2018-11-13T00:10:10.530Z,10.60
2018-11-13T00:12:39.317Z,10.03
2018-11-13T00:15:08.157Z,10.20
2018-11-13T00:17:37.154Z,10.10
2018-11-13T00:20:07.557Z,10.70
2018-11-13T00:22:36.243Z,10.63
2018-11-13T00:25:05.523Z,9.50
2018-11-13T00:27:34.271Z,8.60
2018-11-13T00:30:02.923Z,9.40
2018-11-13T00:32:31.663Z,9.70
2018-11-13T00:35:00.440Z,8.87
2018-11-13T00:37:29.095Z,8.70
2018-11-13T00:39:57.772Z,8.17
2018-11-13T00:42:26.929Z,8.50
2018-11-13T00:44:55.628Z,9.17
2018-11-13T00:47:24.296Z,9.10
2018-11-13T00:49:52.971Z,8.70
2018-11-13T00:52:21.609Z,7.57
2018-11-13T00:54:50.337Z,8.40
2018-11-13T00:57:18.999Z,8.17
2018-11-13T00:59:47.788Z,8.07
2018-11-13T01:02:16.499Z,7.53
2018-11-13T01:04:45.177Z,7.53
2018-11-13T01:07:14.239Z,7.00
2018-11-13T01:09:42.883Z,7.20
2018-11-13T01:12:11.592Z,8.30
2018-11-13T01:14:40.273Z,7.47
2018-11-13T01:17:08.951Z,7.47
2018-11-13T01:19:37.606Z,7.37
2018-11-13T01:22:07.619Z,8.13
2018-11-13T01:24:36.446Z,7.37
2018-11-13T01:27:05.245Z,7.37
2018-11-13T01:29:34.372Z,7.73
2018-11-13T01:32:03.150Z,7.57
2018-11-13T01:34:31.831Z,7.30
2018-11-13T01:37:00.532Z,7.60
2018-11-13T01:39:29.253Z,7.47
2018-11-13T01:41:57.904Z,7.00
2018-11-13T01:44:26.683Z,7.83
2018-11-13T01:46:55.364Z,7.93
2018-11-13T01:49:24.047Z,7.03
2018-11-13T01:51:53.715Z,7.37
2018-11-13T01:54:22.394Z,7.23
2018-11-13T01:56:51.092Z,6.93
2018-11-13T01:59:19.762Z,6.90
2018-11-13T02:01:48.760Z,7.10
2018-11-13T02:04:18.603Z,7.03
2018-11-13T02:06:47.291Z,6.80
2018-11-13T02:09:16.107Z,5.93
2018-11-13T02:11:44.924Z,6.50
2018-11-13T02:14:13.632Z,6.53
2018-11-13T02:16:42.432Z,6.23
2018-11-13T02:19:11.782Z,6.10
2018-11-13T02:21:40.759Z,6.07
2018-11-13T02:24:09.747Z,5.73
2018-11-13T02:26:39.941Z,5.73
2018-11-13T02:29:08.647Z,5.57
2018-11-13T02:31:37.301Z,6.07
2018-11-13T02:34:06.263Z,5.53
2018-11-13T02:36:34.951Z,6.00
2018-11-13T02:39:05.056Z,5.63
2018-11-13T02:41:33.730Z,5.53
2018-11-13T02:44:02.410Z,5.83
2018-11-13T02:46:31.091Z,5.83
2018-11-13T02:48:59.744Z,5.33
2018-11-13T02:51:28.470Z,5.40
2018-11-13T02:53:57.223Z,5.60
2018-11-13T02:56:26.018Z,5.90
2018-11-13T02:58:54.770Z,5.17
2018-11-13T03:01:23.477Z,5.17
2018-11-13T03:03:52.121Z,5.13
2018-11-13T03:06:20.804Z,5.73
2018-11-13T03:08:49.480Z,5.43
2018-11-13T03:11:18.161Z,5.53
2018-11-13T03:13:46.881Z,5.00
2018-11-13T03:16:15.501Z,5.30
2018-11-13T03:18:44.139Z,5.20
2018-11-13T03:21:12.765Z,5.30
2018-11-13T03:23:41.411Z,4.73
2018-11-13T03:26:10.077Z,5.30
2018-11-13T03:28:38.803Z,5.13
2018-11-13T03:31:07.700Z,5.30
2018-11-13T03:33:36.253Z,5.07
2018-11-13T03:36:04.932Z,5.10
2018-11-13T03:38:33.603Z,4.90
2018-11-13T03:41:02.331Z,4.67
2018-11-13T03:43:31.026Z,5.10
2018-11-13T03:45:59.696Z,5.00
2018-11-13T03:48:28.365Z,4.67
2018-11-13T03:50:57.072Z,5.27
2018-11-13T03:53:25.739Z,5.30
2018-11-13T03:55:54.387Z,4.80
2018-11-13T03:58:23.055Z,4.63
2018-11-13T04:00:51.862Z,5.27
2018-11-13T04:03:20.566Z,4.63
2018-11-13T04:05:49.187Z,4.53
2018-11-13T04:08:17.933Z,5.20
2018-11-13T04:10:46.572Z,4.73
2018-11-13T04:13:15.223Z,4.80
2018-11-13T04:15:43.853Z,4.53
2018-11-13T04:18:12.550Z,5.07
2018-11-13T04:20:41.272Z,4.60
2018-11-13T04:23:10.009Z,4.53
2018-11-13T04:25:38.667Z,4.40
2018-11-13T04:28:07.298Z,5.00
2018-11-13T04:30:36.048Z,4.30
2018-11-13T04:33:04.723Z,4.70
2018-11-13T04:35:33.372Z,5.10
2018-11-13T04:38:02.076Z,4.80
2018-11-13T04:40:30.705Z,4.60
2018-11-13T04:42:59.365Z,4.23
2018-11-13T04:45:28.142Z,4.80
2018-11-13T04:47:56.833Z,4.73
2018-11-13T04:50:25.504Z,4.70
2018-11-13T04:52:54.129Z,4.80
2018-11-13T04:55:22.796Z,4.40
2018-11-13T04:57:51.511Z,4.57
2018-11-13T05:00:21.440Z,4.70
2018-11-13T05:02:50.243Z,5.00
2018-11-13T05:05:19.599Z,4.40
2018-11-13T05:07:49.499Z,4.50
2018-11-13T05:10:19.003Z,4.60
2018-11-13T05:12:48.735Z,5.03
2018-11-13T05:15:17.529Z,4.60
2018-11-13T05:17:46.870Z,3.90
2018-11-13T05:20:16.244Z,4.90
2018-11-13T05:22:44.906Z,4.83
2018-11-13T05:25:15.328Z,4.20
2018-11-13T05:27:44.178Z,4.30
2018-11-13T05:30:17.223Z,4.27
2018-11-13T05:32:45.917Z,4.37
2018-11-13T05:35:16.064Z,4.47
2018-11-13T05:37:45.257Z,4.10
2018-11-13T05:40:15.889Z,4.57
2018-11-13T05:42:44.564Z,4.53
2018-11-13T05:45:15.284Z,4.60
2018-11-13T05:47:44.034Z,4.50
2018-11-13T05:50:13.980Z,4.50
2018-11-13T05:52:43.480Z,4.33
2018-11-13T05:55:12.608Z,4.67
2018-11-13T05:57:41.357Z,4.50
2018-11-13T06:00:13.292Z,4.17
2018-11-13T06:02:45.793Z,4.33
2018-11-13T06:05:15.868Z,4.50
2018-11-13T06:07:45.167Z,4.50
2018-11-13T06:10:14.758Z,3.90
2018-11-13T06:12:47.509Z,5.47
2018-11-13T06:15:21.213Z,4.53
2018-11-13T06:17:51.439Z,4.50
2018-11-13T06:22:53.691Z,4.77
2018-11-13T06:25:26.570Z,5.03
2018-11-13T06:27:55.254Z,5.13
2018-11-13T06:30:24.914Z,5.10
2018-11-13T06:32:53.793Z,5.83
2018-11-13T06:35:22.463Z,5.60
2018-11-13T06:37:51.191Z,5.63
2018-11-13T06:40:19.880Z,6.20
2018-11-13T06:42:48.594Z,8.47
2018-11-13T06:45:18.691Z,7.47
2018-11-13T06:47:48.086Z,8.80
2018-11-13T06:50:16.817Z,7.00
2018-11-13T06:52:46.298Z,7.13
2018-11-13T06:55:18.082Z,6.57
2018-11-13T06:57:46.453Z,6.83
2018-11-13T07:00:15.145Z,6.70
2018-11-13T07:02:43.813Z,6.80
2018-11-13T07:05:14.278Z,6.50
2018-11-13T07:07:43.290Z,5.83
2018-11-13T07:10:14.097Z,5.70
2018-11-13T07:12:44.256Z,6.37
2018-11-13T07:15:14.383Z,6.27
2018-11-13T07:17:44.760Z,6.07
2018-11-13T07:20:13.845Z,5.83
2018-11-13T07:22:42.743Z,6.23
2018-11-13T07:25:11.680Z,6.30
2018-11-13T07:27:41.037Z,6.33
2018-11-13T07:30:11.176Z,6.60
2018-11-13T07:32:40.577Z,7.77
2018-11-13T07:35:10.401Z,7.37
2018-11-13T07:37:39.941Z,7.97
2018-11-13T07:40:09.027Z,6.97
2018-11-13T07:42:37.694Z,7.57
2018-11-13T07:45:08.708Z,6.50
2018-11-13T07:47:37.642Z,6.37
2018-11-13T07:50:07.593Z,9.07
2018-11-13T07:52:36.270Z,6.37
2018-11-13T07:55:05.366Z,7.77
2018-11-13T07:57:34.433Z,7.63
2018-11-13T08:00:03.179Z,6.63
2018-11-13T08:02:31.999Z,7.93
2018-11-13T08:05:00.700Z,8.50
2018-11-13T08:07:29.436Z,8.13
2018-11-13T08:09:58.116Z,9.07
2018-11-13T08:12:27.105Z,9.10
2018-11-13T08:14:55.808Z,9.10
2018-11-13T08:17:24.498Z,9.53
2018-11-13T08:19:53.221Z,9.03
2018-11-13T08:22:22.937Z,8.93
2018-11-13T08:24:52.244Z,10.03
2018-11-13T08:27:20.926Z,9.93
2018-11-13T08:29:49.597Z,10.50
2018-11-13T08:32:18.303Z,9.73
2018-11-13T08:34:47.008Z,9.73
2018-11-13T08:37:15.716Z,9.53
2018-11-13T08:39:44.385Z,10.20
2018-11-13T08:42:13.148Z,10.33
2018-11-13T08:44:41.798Z,10.20
2018-11-13T08:47:10.451Z,10.53
2018-11-13T08:49:39.121Z,10.93
2018-11-13T08:52:07.799Z,11.03
2018-11-13T08:54:36.463Z,11.30
2018-11-13T08:57:05.134Z,10.73
2018-11-13T08:59:33.890Z,9.80
2018-11-13T09:02:02.221Z,10.50
2018-11-13T09:04:30.933Z,10.80
2018-11-13T09:06:59.615Z,9.93
2018-11-13T09:09:28.272Z,9.83
2018-11-13T09:11:57.118Z,10.70
2018-11-13T09:14:25.692Z,9.43
2018-11-13T09:16:54.428Z,10.00
2018-11-13T09:19:22.885Z,10.13
2018-11-13T09:21:51.461Z,9.77
2018-11-13T09:24:20.177Z,10.10
2018-11-13T09:26:48.814Z,10.10
2018-11-13T09:29:17.476Z,9.10
2018-11-13T09:31:46.170Z,10.17
2018-11-13T09:34:14.815Z,9.17
2018-11-13T09:36:43.440Z,8.77
2018-11-13T09:39:12.766Z,9.63
2018-11-13T09:41:42.149Z,9.40
2018-11-13T09:44:11.431Z,9.53
2018-11-13T09:46:41.412Z,9.07
2018-11-13T09:49:10.123Z,8.83
2018-11-13T09:51:38.808Z,9.30
2018-11-13T09:54:08.136Z,8.53
2018-11-13T09:56:37.739Z,8.43
2018-11-13T09:59:06.380Z,9.37
2018-11-13T10:01:35.321Z,9.07
2018-11-13T10:04:04.360Z,8.93
2018-11-13T10:06:33.836Z,9.40
2018-11-13T10:09:02.534Z,8.67
2018-11-13T10:11:31.246Z,8.97
2018-11-13T10:13:59.947Z,8.27
2018-11-13T10:16:28.601Z,7.77
2018-11-13T10:18:57.303Z,8.13
2018-11-13T10:21:26.067Z,8.67
2018-11-13T10:23:54.791Z,7.87
2018-11-13T10:26:23.587Z,8.87
2018-11-13T10:28:52.196Z,8.60
2018-11-13T10:31:20.878Z,8.60
2018-11-13T10:33:49.564Z,7.90
2018-11-13T10:36:18.225Z,8.40
2018-11-13T10:38:46.963Z,7.63
2018-11-13T10:41:15.677Z,8.43
2018-11-13T10:43:44.461Z,7.87
2018-11-13T10:46:13.179Z,8.20
2018-11-13T10:48:41.859Z,7.97
2018-11-13T10:51:10.540Z,8.27
2018-11-13T10:53:39.188Z,8.50
2018-11-13T10:56:08.665Z,8.00
2018-11-13T10:58:37.320Z,9.00
2018-11-13T11:01:11.969Z,8.60
2018-11-13T11:03:46.060Z,8.33
2018-11-13T11:06:14.729Z,8.20
2018-11-13T11:08:44.197Z,7.80
2018-11-13T11:11:12.857Z,8.00
2018-11-13T11:13:41.755Z,8.13
2018-11-13T11:16:10.264Z,7.80
2018-11-13T11:18:39.204Z,7.70
2018-11-13T11:21:07.986Z,8.50
2018-11-13T11:23:36.723Z,8.00
2018-11-13T11:26:05.831Z,6.90
2018-11-13T11:28:34.818Z,7.40
2018-11-13T11:31:03.620Z,7.30
2018-11-13T11:33:32.237Z,7.23
2018-11-13T11:36:01.259Z,7.57
2018-11-13T11:38:29.994Z,6.53
2018-11-13T11:40:58.615Z,6.87
2018-11-13T11:43:27.321Z,8.13
2018-11-13T11:45:56.040Z,7.57
2018-11-13T11:48:24.732Z,7.73
2018-11-13T11:50:54.676Z,7.20
2018-11-13T11:53:24.540Z,8.23
2018-11-13T11:55:54.707Z,8.03
2018-11-13T11:58:23.363Z,8.13
2018-11-13T12:00:52.164Z,7.27
2018-11-13T12:03:23.016Z,8.13
2018-11-13T12:05:51.728Z,8.27
2018-11-13T12:08:20.363Z,7.13
2018-11-13T12:10:49.041Z,8.67
2018-11-13T12:13:17.760Z,7.23
2018-11-13T12:15:46.413Z,7.97
2018-11-13T12:18:15.098Z,8.23
2018-11-13T12:20:43.757Z,7.77
2018-11-13T12:23:12.422Z,7.43
2018-11-13T12:25:41.134Z,7.17
2018-11-13T12:28:09.768Z,7.17
2018-11-13T12:30:38.428Z,7.33
2018-11-13T12:33:07.101Z,6.93
2018-11-13T12:35:35.768Z,6.50
2018-11-13T12:38:04.496Z,7.37
2018-11-13T12:40:33.188Z,6.90
2018-11-13T12:43:01.939Z,6.53
2018-11-13T12:45:30.691Z,6.90
2018-11-13T12:47:59.414Z,5.97
2018-11-13T12:50:33.487Z,6.40
2018-11-13T12:53:02.176Z,5.57
2018-11-13T12:55:31.394Z,5.70
2018-11-13T12:58:00.102Z,6.60
2018-11-13T13:00:28.791Z,7.13
2018-11-13T13:02:57.438Z,6.47
2018-11-13T13:05:26.174Z,8.23
2018-11-13T13:07:54.898Z,6.70
2018-11-13T13:10:23.562Z,7.27
2018-11-13T13:12:52.382Z,6.00
2018-11-13T13:15:21.228Z,6.63
2018-11-13T13:17:49.991Z,6.03
2018-11-13T13:20:20.973Z,6.03
2018-11-13T13:22:50.348Z,6.17
2018-11-13T13:25:19.912Z,6.73
2018-11-13T13:27:48.665Z,6.13
2018-11-13T13:30:20.008Z,6.27
2018-11-13T13:32:49.230Z,5.70
2018-11-13T13:36:01.114Z,7.03
2018-11-13T13:38:30.537Z,5.60
2018-11-13T13:41:00.383Z,5.57
2018-11-13T13:43:29.908Z,5.10
2018-11-13T13:45:58.703Z,5.27
2018-11-13T13:48:27.688Z,5.90
2018-11-13T13:50:56.357Z,5.80
2018-11-13T13:53:25.967Z,5.43
2018-11-13T13:55:54.678Z,5.27
2018-11-13T13:58:24.112Z,5.70
2018-11-13T14:00:53.187Z,5.00
2018-11-13T14:03:21.752Z,5.00
2018-11-13T14:05:50.414Z,4.50
2018-11-13T14:08:19.314Z,5.83
2018-11-13T14:10:47.991Z,4.80
2018-11-13T14:13:16.867Z,4.37
2018-11-13T14:15:45.591Z,4.70
2018-11-13T14:18:14.498Z,4.40
2018-11-13T14:20:43.221Z,4.83
2018-11-13T14:23:11.926Z,4.70
2018-11-13T14:25:40.719Z,4.47
2018-11-13T14:28:09.401Z,4.50
2018-11-13T14:30:38.459Z,4.27
2018-11-13T14:33:08.423Z,3.73
2018-11-13T14:35:37.470Z,4.30
2018-11-13T14:38:06.523Z,3.90
2018-11-13T14:40:38.121Z,3.83
2018-11-13T14:43:07.230Z,4.27
2018-11-13T14:45:36.062Z,4.13
2018-11-13T14:48:04.823Z,3.83
2018-11-13T14:50:35.084Z,3.80
2018-11-13T14:53:04.207Z,4.40
2018-11-13T14:55:34.449Z,3.50
2018-11-13T14:58:03.953Z,4.20
2018-11-13T15:00:33.873Z,3.47
2018-11-13T15:03:03.630Z,3.77
2018-11-13T15:05:32.941Z,3.73
2018-11-13T15:08:04.582Z,4.20
2018-11-13T15:10:38.542Z,4.13
2018-11-13T15:13:07.757Z,4.23
2018-11-13T15:15:36.399Z,3.53
2018-11-13T15:18:05.372Z,3.40
2018-11-13T15:20:34.085Z,3.13
2018-11-13T15:23:03.310Z,3.23
2018-11-13T15:25:32.041Z,3.40
2018-11-13T15:28:00.788Z,3.17
2018-11-13T15:30:32.127Z,3.40
2018-11-13T15:33:04.260Z,3.47
2018-11-13T15:35:32.934Z,3.10
2018-11-13T15:38:01.580Z,2.77
2018-11-13T15:40:31.243Z,3.10
2018-11-13T15:42:59.899Z,3.33
2018-11-13T15:45:28.573Z,3.10
2018-11-13T15:47:58.544Z,2.90
2018-11-13T15:50:28.336Z,3.03
2018-11-13T15:52:57.332Z,3.33
2018-11-13T15:55:26.011Z,2.90
2018-11-13T15:57:55.018Z,3.40
2018-11-13T16:00:26.885Z,2.80
2018-11-13T16:02:57.215Z,3.40
2018-11-13T16:05:27.473Z,2.77
2018-11-13T16:07:57.332Z,3.07
2018-11-13T16:10:26.322Z,3.10
2018-11-13T16:12:55.071Z,3.00
2018-11-13T16:15:24.610Z,2.80
2018-11-13T16:17:54.096Z,2.90
2018-11-13T16:20:22.995Z,2.70
2018-11-13T16:22:51.735Z,2.93
2018-11-13T16:25:20.414Z,2.90
2018-11-13T16:27:49.076Z,3.23
2018-11-13T16:30:19.584Z,2.87
2018-11-13T16:32:48.808Z,2.90
2018-11-13T16:35:18.487Z,2.70
2018-11-13T16:37:47.964Z,2.90
2018-11-13T16:40:18.869Z,2.80
2018-11-13T16:42:47.528Z,3.47
2018-11-13T16:45:17.362Z,2.93
2018-11-13T16:47:46.092Z,2.50
2018-11-13T16:50:18.272Z,2.70
2018-11-13T16:52:46.943Z,3.10
2018-11-13T16:55:20.901Z,2.80
2018-11-13T16:57:50.496Z,2.97
2018-11-13T17:00:19.286Z,2.90
2018-11-13T17:02:47.998Z,3.13
2018-11-13T17:05:17.631Z,3.20
2018-11-13T17:07:46.291Z,3.37
2018-11-13T17:10:17.250Z,2.70
2018-11-13T17:12:46.320Z,2.70
2018-11-13T17:15:18.228Z,2.70
2018-11-13T17:17:47.875Z,2.90
2018-11-13T17:20:16.772Z,2.20
2018-11-13T17:22:46.088Z,2.70
2018-11-13T17:25:15.987Z,2.40
2018-11-13T17:27:46.253Z,2.80
2018-11-13T17:30:19.405Z,2.70
2018-11-13T17:32:47.356Z,2.80
2018-11-13T17:35:17.280Z,2.97
2018-11-13T17:37:46.576Z,2.63
2018-11-13T17:40:17.423Z,2.93
2018-11-13T17:42:46.686Z,2.70
2018-11-13T17:45:18.517Z,2.50
2018-11-13T17:47:47.511Z,2.60
2018-11-13T17:50:18.292Z,2.43
2018-11-13T17:52:47.620Z,2.43
2018-11-13T17:55:17.889Z,2.43
2018-11-13T17:57:47.463Z,2.33
2018-11-13T18:00:20.284Z,2.23
2018-11-13T18:02:49.485Z,2.30
2018-11-13T18:05:19.402Z,2.37
2018-11-13T18:07:48.456Z,2.50
2018-11-13T18:10:17.140Z,2.43
2018-11-13T18:12:45.822Z,2.37
2018-11-13T18:15:15.370Z,2.20
2018-11-13T18:17:44.511Z,2.33
2018-11-13T18:20:22.083Z,2.50
2018-11-13T18:22:50.745Z,2.77
2018-11-13T18:25:19.418Z,2.47
2018-11-13T18:27:49.346Z,2.30
2018-11-13T18:30:35.258Z,2.70
2018-11-13T18:33:05.981Z,2.20
2018-11-13T18:35:38.310Z,2.27
2018-11-13T18:38:10.551Z,2.33
2018-11-13T18:40:39.494Z,2.50
2018-11-13T18:43:09.556Z,2.53
2018-11-13T18:45:40.637Z,2.37
2018-11-13T18:48:09.362Z,2.47
2018-11-13T18:50:42.236Z,2.03
2018-11-13T18:53:20.230Z,2.17
2018-11-13T18:55:50.194Z,1.80
2018-11-13T18:58:20.242Z,2.17
2018-11-13T19:00:51.369Z,2.10
2018-11-13T19:03:20.053Z,2.30
2018-11-13T19:05:52.021Z,2.00
2018-11-13T19:08:24.206Z,2.53
2018-11-13T19:10:54.389Z,2.43
2018-11-13T19:13:25.533Z,2.70
2018-11-13T19:15:56.934Z,2.40
2018-11-13T19:18:25.713Z,2.83
2018-11-13T19:20:54.389Z,2.70
2018-11-13T19:23:23.251Z,2.87
2018-11-13T19:25:51.938Z,3.03
2018-11-13T19:28:20.590Z,3.17
2018-11-13T19:30:49.376Z,3.30
2018-11-13T19:33:18.074Z,3.30
2018-11-13T19:35:46.918Z,3.47
2018-11-13T19:38:15.500Z,4.00
2018-11-13T19:40:44.165Z,3.08
2018-11-13T19:43:14.259Z,3.45
2018-11-13T19:45:42.557Z,3.77
2018-11-13T19:48:11.576Z,3.83
2018-11-13T19:50:40.882Z,3.87
2018-11-13T19:53:09.204Z,4.27
2018-11-13T19:55:37.895Z,5.17
2018-11-13T19:58:06.664Z,6.10
2018-11-13T20:00:36.484Z,8.40
2018-11-13T20:03:06.659Z,6.73
2018-11-13T20:05:41.703Z,6.90
2018-11-13T20:08:10.918Z,8.57
2018-11-13T20:10:40.261Z,8.80
2018-11-13T20:13:09.765Z,8.80
2018-11-13T20:15:38.949Z,8.90
2018-11-13T20:18:07.706Z,12.45
2018-11-13T20:20:36.513Z,15.37
2018-11-13T20:23:06.425Z,15.40
2018-11-13T20:25:35.820Z,15.80
2018-11-13T20:28:04.560Z,17.10
2018-11-13T20:30:34.655Z,17.37
2018-11-13T20:33:03.389Z,18.53
2018-11-13T20:35:32.156Z,18.20
2018-11-13T20:38:01.268Z,17.80
2018-11-13T20:40:32.244Z,18.67
2018-11-13T20:43:02.134Z,16.95
2018-11-13T20:45:30.856Z,12.33
2018-11-13T20:47:59.607Z,14.77
2018-11-13T20:50:29.610Z,13.85
2018-11-13T20:52:58.374Z,15.10
2018-11-13T20:55:27.092Z,15.30
2018-11-13T20:57:55.796Z,15.48
2018-11-13T21:00:32.512Z,15.83
2018-11-13T21:03:01.279Z,15.13
2018-11-13T21:05:30.980Z,15.43
2018-11-13T21:08:00.000Z,15.57
2018-11-13T21:10:30.686Z,15.88
2018-11-13T21:12:59.804Z,16.23
2018-11-13T21:15:28.471Z,14.87
2018-11-13T21:17:57.180Z,15.43
2018-11-13T21:20:26.856Z,15.10
2018-11-13T21:22:55.936Z,15.13
2018-11-13T21:25:28.076Z,15.23
2018-11-13T21:27:58.876Z,14.60
2018-11-13T21:30:27.813Z,13.83
2018-11-13T21:32:56.419Z,13.90
2018-11-13T21:35:25.435Z,13.40
2018-11-13T21:37:55.623Z,13.33
2018-11-13T21:40:25.715Z,12.50
2018-11-13T21:42:55.231Z,12.47
2018-11-13T21:45:24.873Z,12.03
2018-11-13T21:47:53.587Z,11.25
2018-11-13T21:50:23.612Z,12.37
2018-11-13T21:52:51.991Z,10.97
2018-11-13T21:55:21.808Z,10.95
2018-11-13T21:57:50.510Z,10.05
2018-11-13T22:00:23.018Z,10.48
2018-11-13T22:02:55.450Z,10.58
2018-11-13T22:05:25.446Z,9.28
2018-11-13T22:07:55.242Z,9.58
2018-11-13T22:10:25.719Z,9.53
2018-11-13T22:12:54.459Z,9.03
2018-11-13T22:15:24.286Z,9.20
2018-11-13T22:17:53.076Z,8.93
2018-11-13T22:20:22.436Z,8.03
2018-11-13T22:22:52.252Z,8.87
2018-11-13T22:25:22.385Z,7.90
2018-11-13T22:27:52.435Z,7.45
2018-11-13T22:30:22.359Z,7.60
2018-11-13T22:32:51.076Z,7.83
2018-11-13T22:35:20.679Z,7.10
2018-11-13T22:37:49.387Z,6.87
2018-11-13T22:40:20.356Z,6.92
2018-11-13T22:42:49.332Z,7.05
2018-11-13T22:45:19.605Z,7.60
2018-11-13T22:47:50.017Z,6.37
2018-11-13T22:50:25.909Z,6.42
2018-11-13T22:52:55.065Z,7.08
2018-11-13T22:55:23.847Z,6.22
2018-11-13T22:57:53.873Z,5.78
2018-11-13T23:00:25.689Z,6.12
2018-11-13T23:02:55.127Z,6.22
2018-11-13T23:05:23.951Z,5.30
2018-11-13T23:07:53.241Z,6.20
2018-11-13T23:10:22.095Z,5.87
2018-11-13T23:12:51.249Z,5.22
2018-11-13T23:15:21.084Z,5.22
2018-11-13T23:17:54.884Z,4.90
2018-11-13T23:20:23.537Z,4.50
2018-11-13T23:22:52.210Z,5.17
2018-11-13T23:25:20.966Z,4.47
2018-11-13T23:27:50.886Z,5.20
2018-11-13T23:30:20.767Z,4.70
2018-11-13T23:32:49.839Z,3.10
2018-11-13T23:35:18.785Z,3.57
2018-11-13T23:37:49.715Z,4.30
2018-11-13T23:40:20.595Z,4.63
2018-11-13T23:42:49.670Z,4.40
2018-11-13T23:45:19.292Z,4.83
2018-11-13T23:47:48.356Z,4.23
2018-11-13T23:50:17.077Z,4.50
2018-11-13T23:52:46.536Z,4.80
2018-11-13T23:55:15.693Z,4.50
2018-11-13T23:57:45.556Z,4.67
